Time;durP1;ratioP1;P1;durP2;ratioP2;P2;SDS_P1;SDS_P2;PMS_P1;PMS_P2;Temp;Humidity;BMP_temperature;BMP_pressure;BME280_temperature;BME280_humidity;BME280_pressure;Samples;Min_cycle;Max_cycle;Signal;HPM_P1;HPM_P2
2024/01/27 00:02:20;;;;;;;3.17;1.10;;;1.70;99.90;;;0.87;100.00;98927.03;5049147;28;20031;-38
2024/01/27 00:04:46;;;;;;;3.05;0.98;;;1.70;99.90;;;0.90;100.00;98926.25;5046951;28;20563;-38
2024/01/27 00:07:12;;;;;;;5.07;1.33;;;1.70;99.90;;;0.86;100.00;98933.09;5050878;28;20028;-38
2024/01/27 00:09:37;;;;;;;2.83;1.20;;;1.80;99.90;;;0.83;100.00;98930.41;5047856;28;20032;-38
2024/01/27 00:12:03;;;;;;;4.65;1.48;;;1.70;99.90;;;0.89;100.00;98935.75;5046188;28;20037;-37
2024/01/27 00:14:29;;;;;;;3.63;1.27;;;1.80;99.90;;;0.95;100.00;98929.81;5045814;28;20092;-38
2024/01/27 00:16:55;;;;;;;6.30;1.40;;;1.80;99.90;;;0.93;100.00;98927.22;5047247;28;20036;-38
2024/01/27 00:19:20;;;;;;;3.55;1.17;;;1.80;99.90;;;0.91;100.00;98934.06;5050126;28;20488;-38
2024/01/27 00:21:46;;;;;;;5.55;1.55;;;1.80;99.90;;;0.93;100.00;98935.00;5047186;28;20178;-38
2024/01/27 00:24:13;;;;;;;4.32;1.52;;;1.80;99.90;;;0.94;100.00;98928.06;5046484;28;20060;-38
2024/01/27 00:26:39;;;;;;;3.67;1.45;;;1.80;99.90;;;0.93;100.00;98924.59;5048286;28;20043;-38
2024/01/27 00:29:05;;;;;;;3.75;1.27;;;1.90;99.90;;;0.97;100.00;98933.38;5047044;28;20211;-38
2024/01/27 00:31:30;;;;;;;5.85;1.33;;;1.90;99.90;;;1.00;100.00;98932.53;5047660;28;20040;-38
2024/01/27 00:33:56;;;;;;;2.95;1.20;;;1.90;99.90;;;0.93;100.00;98937.59;5045710;28;20531;-37
2024/01/27 00:36:22;;;;;;;3.15;1.48;;;1.90;99.90;;;0.90;100.00;98945.31;5051446;28;20086;-38
2024/01/27 00:38:47;;;;;;;3.45;1.45;;;1.80;99.90;;;0.80;100.00;98942.44;5047632;28;20044;-38
2024/01/27 00:41:17;;;;;;;5.88;1.58;;;1.80;99.90;;;0.75;100.00;98944.88;5045818;28;20473;-38
2024/01/27 00:43:43;;;;;;;2.15;1.10;;;1.70;99.90;;;0.67;100.00;98946.41;5065488;28;20538;-38
2024/01/27 00:46:09;;;;;;;3.80;1.23;;;1.60;99.90;;;0.61;100.00;98954.00;5049340;28;20028;-38
2024/01/27 00:48:34;;;;;;;3.45;1.50;;;1.60;99.90;;;0.56;100.00;98953.91;5048241;28;20028;-38
2024/01/27 00:51:00;;;;;;;2.67;1.30;;;1.50;99.90;;;0.53;100.00;98954.69;5049333;28;20240;-38
2024/01/27 00:53:26;;;;;;;2.65;1.13;;;1.50;99.90;;;0.43;100.00;98944.00;5046951;28;20032;-38
2024/01/27 00:55:51;;;;;;;3.05;1.20;;;1.40;99.90;;;0.47;100.00;98951.06;5043709;28;20036;-38
2024/01/27 00:58:17;;;;;;;3.20;1.10;;;1.40;99.90;;;0.52;100.00;98955.53;5045079;28;20028;-38
2024/01/27 01:00:43;;;;;;;7.35;1.75;;;1.40;99.90;;;0.50;100.00;98954.63;5044976;28;20097;-38
2024/01/27 01:03:08;;;;;;;3.35;1.20;;;1.40;99.90;;;0.40;100.00;98936.16;5048913;28;20488;-38
2024/01/27 01:05:34;;;;;;;5.30;1.33;;;1.50;99.90;;;0.56;100.00;98951.31;5047374;28;20044;-38
2024/01/27 01:08:00;;;;;;;6.82;1.38;;;1.50;99.90;;;0.55;100.00;98955.59;5048587;28;20444;-38
2024/01/27 01:10:26;;;;;;;6.60;1.60;;;1.50;99.90;;;0.52;100.00;98950.34;5047131;28;20029;-38
2024/01/27 01:12:52;;;;;;;4.32;1.30;;;1.50;99.90;;;0.50;100.00;98958.91;5039153;28;20036;-38
2024/01/27 01:15:18;;;;;;;3.63;1.40;;;1.40;99.90;;;0.43;100.00;98955.28;5041850;28;20037;-38
2024/01/27 01:17:43;;;;;;;3.72;1.45;;;1.40;99.90;;;0.40;100.00;98970.75;5046118;28;20037;-38
2024/01/27 01:20:10;;;;;;;4.90;1.30;;;1.40;99.90;;;0.35;100.00;98970.63;5045167;28;20290;-37
2024/01/27 01:22:35;;;;;;;6.57;1.60;;;1.30;99.90;;;0.42;100.00;98963.03;5048049;28;20450;-37
2024/01/27 01:25:01;;;;;;;3.10;1.17;;;1.30;99.90;;;0.35;100.00;98961.97;5044124;28;20028;-37
2024/01/27 01:27:27;;;;;;;3.58;1.10;;;1.30;99.90;;;0.35;100.00;98959.38;5050803;28;20086;-37
2024/01/27 01:29:52;;;;;;;2.70;1.20;;;1.30;99.90;;;0.42;100.00;98966.50;5048127;28;20040;-37
2024/01/27 01:32:18;;;;;;;2.58;1.23;;;1.30;99.90;;;0.42;100.00;98969.09;5049723;28;20031;-38
2024/01/27 01:34:47;;;;;;;5.28;1.35;;;1.30;99.90;;;0.42;100.00;98963.91;5043714;28;20474;-37
2024/01/27 01:37:13;;;;;;;2.47;1.00;;;1.30;99.90;;;0.46;100.00;98970.94;5051275;28;20513;-37
2024/01/27 01:39:39;;;;;;;1.85;1.05;;;1.30;99.90;;;0.48;100.00;98977.03;5051271;28;20021;-38
2024/01/27 01:42:05;;;;;;;7.10;1.65;;;1.30;99.90;;;0.52;100.00;98973.72;5050457;28;20048;-38
2024/01/27 01:44:34;;;;;;;4.03;1.25;;;1.40;99.90;;;0.51;100.00;98973.66;5046262;28;20032;-38
2024/01/27 01:46:59;;;;;;;4.95;1.30;;;1.40;99.90;;;0.50;100.00;98967.59;5052670;28;20067;-37
2024/01/27 01:49:26;;;;;;;3.65;1.35;;;1.40;99.90;;;0.53;100.00;98966.78;5050729;28;20119;-37
2024/01/27 01:51:52;;;;;;;5.78;1.83;;;1.50;99.90;;;0.61;100.00;98977.38;5049866;28;20029;-37
2024/01/27 01:54:18;;;;;;;3.95;1.40;;;1.50;99.90;;;0.59;100.00;98964.34;5064513;28;20444;-38
2024/01/27 01:56:44;;;;;;;3.80;1.50;;;1.50;99.90;;;0.59;100.00;98974.75;5051067;28;20147;-37
2024/01/27 01:59:10;;;;;;;2.45;1.50;;;1.50;99.90;;;0.57;100.00;98977.31;5049398;28;20586;-37
2024/01/27 02:01:36;;;;;;;5.30;1.40;;;1.50;99.90;;;0.37;100.00;98955.97;5044981;28;20041;-37
2024/01/27 02:04:05;;;;;;;7.03;1.40;;;1.50;99.90;;;0.51;100.00;98986.66;5052046;28;20029;-37
2024/01/27 02:06:30;;;;;;;3.30;1.52;;;1.50;99.90;;;0.51;100.00;98991.84;5045429;28;20041;-37
2024/01/27 02:08:56;;;;;;;4.68;1.35;;;1.40;99.90;;;0.43;100.00;98990.72;5049419;28;20524;-37
2024/01/27 02:11:22;;;;;;;5.35;1.98;;;1.40;99.90;;;0.42;100.00;99000.25;5049817;28;20084;-37
2024/01/27 02:13:48;;;;;;;6.97;1.55;;;1.30;99.90;;;0.42;100.00;99012.34;5051624;28;20484;-37
2024/01/27 02:16:13;;;;;;;5.70;1.63;;;1.30;99.90;;;0.36;100.00;99013.06;5052194;28;20044;-37
2024/01/27 02:18:39;;;;;;;7.30;1.50;;;1.30;99.90;;;0.29;100.00;99011.97;5056846;28;20036;-38
2024/01/27 02:21:05;;;;;;;3.28;1.25;;;1.20;99.90;;;0.21;100.00;99010.84;5048754;28;20710;-38
2024/01/27 02:23:31;;;;;;;3.53;1.42;;;1.20;99.90;;;0.11;100.00;99017.50;5043292;28;20035;-37
2024/01/27 02:25:56;;;;;;;5.90;1.50;;;1.10;99.90;;;-0.02;100.00;99011.06;5050412;28;20041;-37
2024/01/27 02:28:25;;;;;;;6.45;1.70;;;1.00;99.90;;;-0.04;100.00;99015.28;5049431;28;20032;-37
2024/01/27 02:30:50;;;;;;;5.43;1.50;;;0.90;99.90;;;-0.12;100.00;99016.78;5050270;28;20032;-38
2024/01/27 02:33:16;;;;;;;3.22;1.30;;;0.90;99.90;;;-0.16;100.00;99020.13;5046143;28;21780;-37
2024/01/27 02:35:43;;;;;;;6.00;1.88;;;0.90;99.90;;;-0.19;100.00;99027.78;5050624;28;20238;-37
2024/01/27 02:38:09;;;;;;;4.13;1.42;;;0.80;99.90;;;-0.24;100.00;99027.63;5050419;28;20032;-37
2024/01/27 02:40:35;;;;;;;4.03;1.15;;;0.70;99.90;;;-0.52;100.00;98983.50;5047790;28;20758;-37
2024/01/27 02:43:00;;;;;;;3.72;1.27;;;0.80;99.90;;;-0.31;100.00;99023.09;5051780;28;20356;-37
2024/01/27 02:45:26;;;;;;;6.35;1.42;;;0.70;99.90;;;-0.24;100.00;99027.63;5052218;28;20025;-37
2024/01/27 02:47:52;;;;;;;3.53;1.63;;;0.80;99.90;;;-0.12;100.00;99036.66;5045958;28;20524;-38
2024/01/27 02:50:18;;;;;;;3.60;1.58;;;0.80;99.90;;;-0.07;100.00;99037.66;5049741;28;21079;-37
2024/01/27 02:52:44;;;;;;;7.22;1.63;;;0.90;99.90;;;0.02;100.00;99025.00;5048470;28;20024;-37
2024/01/27 02:55:10;;;;;;;4.38;1.80;;;1.00;99.90;;;-0.02;100.00;99033.50;5051294;28;20043;-37
2024/01/27 02:57:35;;;;;;;2.63;1.63;;;1.00;99.90;;;-0.03;100.00;99023.97;5050522;28;20322;-37
2024/01/27 03:00:01;;;;;;;3.15;1.45;;;1.00;99.90;;;-0.06;100.00;99036.84;5069372;28;20028;-37
2024/01/27 03:02:27;;;;;;;2.63;1.52;;;0.90;99.90;;;-0.13;100.00;99043.53;5048720;28;20298;-37
2024/01/27 03:04:52;;;;;;;4.22;1.48;;;0.80;99.90;;;-0.08;100.00;99038.50;5045900;28;20033;-37
2024/01/27 03:07:18;;;;;;;8.40;1.88;;;0.80;99.90;;;-0.11;100.00;99041.00;5048722;28;20028;-38
2024/01/27 03:09:44;;;;;;;2.33;1.55;;;0.80;99.90;;;-0.07;100.00;99046.34;5049126;28;20052;-37
2024/01/27 03:12:09;;;;;;;9.07;1.70;;;0.80;99.90;;;-0.05;100.00;99052.47;5051162;28;20035;-37
2024/01/27 03:14:35;;;;;;;5.03;1.70;;;0.80;99.90;;;-0.19;100.00;99009.66;5046869;28;20103;-37
2024/01/27 03:17:01;;;;;;;3.83;1.45;;;0.90;99.90;;;0.02;100.00;99029.28;5050952;28;20493;-37
2024/01/27 03:19:26;;;;;;;3.70;1.30;;;0.90;99.90;;;0.10;100.00;99044.25;5050644;28;20028;-37
2024/01/27 03:21:52;;;;;;;3.13;1.30;;;1.00;99.90;;;0.07;100.00;99031.22;5042418;28;20075;-37
2024/01/27 03:24:18;;;;;;;6.25;1.55;;;1.00;99.90;;;0.12;100.00;99033.94;5042382;28;20031;-37
2024/01/27 03:26:43;;;;;;;10.07;1.50;;;1.00;99.90;;;0.13;100.00;99043.50;5052860;28;20436;-38
2024/01/27 03:29:09;;;;;;;7.78;1.45;;;1.10;99.90;;;0.10;100.00;99039.06;5048830;28;20044;-38
2024/01/27 03:31:35;;;;;;;8.25;1.58;;;1.00;99.90;;;0.08;100.00;99040.75;5051307;28;20029;-37
2024/01/27 03:34:02;;;;;;;5.40;1.50;;;1.00;99.90;;;0.06;100.00;99047.59;5049689;28;20059;-37
2024/01/27 03:36:28;;;;;;;4.75;1.50;;;1.00;99.90;;;0.05;100.00;99064.00;5051796;28;20506;-38
2024/01/27 03:38:56;;;;;;;6.35;1.65;;;1.00;99.90;;;0.09;100.00;99073.66;5051539;28;20045;-37
2024/01/27 03:41:22;;;;;;;5.35;2.13;;;1.00;99.90;;;0.14;100.00;99077.28;5046830;28;20802;-38
2024/01/27 03:43:48;;;;;;;3.10;1.17;;;1.00;99.90;;;0.19;100.00;99080.00;5048459;28;20111;-38
2024/01/27 03:46:13;;;;;;;10.80;2.13;;;1.10;99.90;;;0.20;100.00;99076.59;5046344;28;20047;-38
2024/01/27 03:48:39;;;;;;;4.20;1.70;;;1.10;99.90;;;0.23;100.00;99092.22;5049126;28;20059;-38
2024/01/27 03:51:05;;;;;;;5.93;2.03;;;1.10;99.90;;;0.13;100.00;99075.50;5065439;28;20048;-38
2024/01/27 03:53:31;;;;;;;5.57;1.60;;;1.10;99.90;;;0.10;100.00;99070.22;5047626;28;20040;-38
2024/01/27 03:55:59;;;;;;;4.28;1.38;;;1.10;99.90;;;0.17;100.00;99077.34;5034569;28;20053;-38
2024/01/27 03:58:25;;;;;;;4.00;1.38;;;1.10;99.90;;;0.13;100.00;99075.50;5042902;28;20571;-38
2024/01/27 04:00:54;;;;;;;5.10;1.55;;;1.00;99.90;;;0.13;100.00;99087.59;5049199;28;20037;-38
2024/01/27 04:03:20;;;;;;;4.22;1.45;;;1.00;99.90;;;0.15;100.00;99089.41;5061552;28;20032;-38
2024/01/27 04:05:46;;;;;;;6.72;1.38;;;1.00;99.90;;;0.14;100.00;99092.84;5052192;28;20025;-37
2024/01/27 04:08:12;;;;;;;5.60;1.48;;;1.00;99.90;;;0.15;100.00;99091.13;5046353;28;20482;-38
2024/01/27 04:10:37;;;;;;;2.83;1.38;;;1.00;99.90;;;0.15;100.00;99088.53;5050709;28;20409;-38
2024/01/27 04:13:03;;;;;;;5.97;1.33;;;1.00;99.90;;;0.12;100.00;99078.03;5063283;28;20032;-38
2024/01/27 04:15:29;;;;;;;4.65;1.52;;;1.00;99.90;;;0.09;100.00;99078.84;5047099;28;20025;-38
2024/01/27 04:17:55;;;;;;;5.70;1.50;;;0.90;99.90;;;0.02;100.00;99078.56;5047458;28;20076;-38
2024/01/27 04:20:21;;;;;;;6.75;1.65;;;0.90;99.90;;;0.00;100.00;99081.16;5049565;28;20060;-38
2024/01/27 04:22:47;;;;;;;2.58;1.35;;;0.90;99.90;;;-0.07;100.00;99086.94;5045606;28;20553;-38
2024/01/27 04:25:13;;;;;;;3.50;1.30;;;0.90;99.90;;;-0.13;100.00;99089.34;5048090;28;20035;-38
2024/01/27 04:27:39;;;;;;;7.88;1.70;;;0.80;99.90;;;-0.17;100.00;99083.19;5052129;28;20082;-38
2024/01/27 04:30:07;;;;;;;3.55;1.60;;;0.70;99.90;;;-0.24;100.00;99095.06;5050876;28;20210;-38
2024/01/27 04:32:32;;;;;;;4.10;1.45;;;0.70;99.90;;;-0.28;100.00;99097.50;5050718;28;20040;-38
2024/01/27 04:34:58;;;;;;;3.25;1.00;;;0.70;99.90;;;-0.34;100.00;99093.00;5051036;28;20047;-38
2024/01/27 04:37:24;;;;;;;5.70;1.05;;;0.60;99.90;;;-0.42;100.00;99084.94;5048978;28;20041;-38
2024/01/27 04:39:50;;;;;;;6.60;1.50;;;0.60;99.90;;;-0.39;100.00;99097.16;5049717;28;20025;-38
2024/01/27 04:42:16;;;;;;;5.30;1.55;;;0.50;99.90;;;-0.44;100.00;99085.75;5049975;28;20199;-38
2024/01/27 04:44:42;;;;;;;3.00;1.20;;;0.50;99.90;;;-0.41;100.00;99096.22;5051178;28;20036;-38
2024/01/27 04:47:08;;;;;;;3.95;1.20;;;0.50;99.90;;;-0.45;100.00;99087.47;5056197;28;20040;-38
2024/01/27 04:49:34;;;;;;;3.17;1.23;;;0.50;99.90;;;-0.44;100.00;99096.13;5048397;28;20052;-38
2024/01/27 04:51:59;;;;;;;4.32;1.08;;;0.50;99.90;;;-0.44;100.00;99102.16;5054134;28;20047;-38
2024/01/27 04:54:25;;;;;;;4.07;1.52;;;0.50;99.90;;;-0.45;100.00;99103.00;5048334;28;20036;-38
2024/01/27 04:56:51;;;;;;;5.25;1.27;;;0.50;99.90;;;-0.48;100.00;99102.91;5048026;28;20028;-38
2024/01/27 04:59:17;;;;;;;2.10;1.10;;;0.40;99.90;;;-0.51;100.00;99095.00;5049001;28;20095;-38
2024/01/27 05:01:46;;;;;;;5.55;1.38;;;0.40;99.90;;;-0.48;100.00;99105.50;5049412;28;20048;-38
2024/01/27 05:04:12;;;;;;;4.30;1.13;;;0.40;99.90;;;-0.50;100.00;99096.78;5049511;28;20106;-38
2024/01/27 05:06:41;;;;;;;5.07;1.38;;;0.40;99.90;;;-0.46;100.00;99108.16;5046893;28;20040;-38
2024/01/27 05:09:07;;;;;;;4.10;1.60;;;0.40;99.90;;;-0.50;100.00;99101.97;5048976;28;20051;-38
2024/01/27 05:11:33;;;;;;;2.60;1.30;;;0.40;99.90;;;-0.58;100.00;99099.09;5050657;28;20039;-38
2024/01/27 05:14:00;;;;;;;6.18;1.50;;;0.40;99.90;;;-0.63;100.00;99092.91;5054689;28;20347;-38
2024/01/27 05:16:27;;;;;;;12.07;1.90;;;0.40;99.90;;;-0.50;100.00;99106.25;5054431;28;20039;-38
2024/01/27 05:18:52;;;;;;;4.90;1.48;;;0.40;99.90;;;-0.71;100.00;99076.19;5048754;28;20064;-38
2024/01/27 05:21:18;;;;;;;7.70;1.70;;;0.40;99.90;;;-0.65;100.00;99093.66;5050101;28;20033;-38
2024/01/27 05:23:44;;;;;;;5.03;1.30;;;0.40;99.90;;;-0.56;100.00;99106.94;5051841;28;20045;-38
2024/01/27 05:26:10;;;;;;;5.05;1.50;;;0.30;99.90;;;-0.63;100.00;99086.81;5051955;28;20037;-38
2024/01/27 05:28:37;;;;;;;5.45;1.40;;;0.30;99.90;;;-0.60;100.00;99100.75;5053562;28;20428;-38
2024/01/27 05:31:06;;;;;;;6.97;1.42;;;0.30;99.90;;;-0.60;100.00;99100.75;5050563;28;20036;-38
2024/01/27 05:33:32;;;;;;;2.13;1.13;;;0.30;99.90;;;-0.75;100.00;99076.00;5051607;28;20037;-38
2024/01/27 05:35:58;;;;;;;4.70;1.85;;;0.30;99.90;;;-0.71;100.00;99086.56;5048246;28;20175;-38
2024/01/27 05:38:25;;;;;;;2.67;1.30;;;0.30;99.90;;;-0.69;100.00;99091.78;5052446;28;20035;-38
2024/01/27 05:40:51;;;;;;;6.43;1.77;;;0.20;99.90;;;-0.78;100.00;99082.00;5054052;28;20231;-37
2024/01/27 05:43:17;;;;;;;6.55;1.25;;;0.20;99.90;;;-0.73;100.00;99097.72;5052443;28;20025;-38
2024/01/27 05:45:44;;;;;;;5.22;1.67;;;0.20;99.90;;;-0.76;100.00;99098.47;5052457;28;20036;-38
2024/01/27 05:48:11;;;;;;;2.88;1.25;;;0.10;99.90;;;-0.77;100.00;99100.19;5051460;28;20037;-38
2024/01/27 05:50:36;;;;;;;5.90;1.30;;;0.10;99.90;;;-0.77;100.00;99101.91;5049304;28;20559;-38
2024/01/27 05:53:02;;;;;;;3.97;1.42;;;0.10;99.90;;;-0.77;100.00;99092.41;5050293;28;20620;-38
2024/01/27 05:55:28;;;;;;;5.43;1.50;;;0.10;99.90;;;-0.76;100.00;99093.28;5050217;28;20124;-38
2024/01/27 05:57:56;;;;;;;4.72;1.45;;;0.20;99.90;;;-0.72;100.00;99094.28;5049738;28;20040;-38
2024/01/27 06:00:22;;;;;;;3.80;1.38;;;0.20;99.90;;;-0.65;100.00;99112.66;5051572;28;20028;-38
2024/01/27 06:02:48;;;;;;;7.18;1.48;;;0.20;99.90;;;-0.70;100.00;99097.78;5053600;28;20541;-38
2024/01/27 06:05:13;;;;;;;8.60;1.80;;;0.20;99.90;;;-0.69;100.00;99104.75;5052302;28;20056;-37
2024/01/27 06:07:40;;;;;;;4.65;1.42;;;0.30;99.90;;;-0.72;100.00;99109.81;5047988;28;20803;-38
2024/01/27 06:10:09;;;;;;;3.83;1.67;;;0.20;99.90;;;-0.75;100.00;99120.97;5053970;28;20044;-38
2024/01/27 06:12:36;;;;;;;4.85;1.30;;;0.20;99.90;;;-0.80;100.00;99117.31;5049097;28;20036;-38
2024/01/27 06:15:02;;;;;;;6.57;1.25;;;0.20;99.90;;;-0.89;100.00;99109.22;5054025;28;20468;-38
2024/01/27 06:17:28;;;;;;;3.88;1.38;;;0.10;99.90;;;-0.88;100.00;99108.38;5049466;28;20519;-38
2024/01/27 06:19:54;;;;;;;2.95;1.20;;;0.00;99.90;;;-0.94;100.00;99108.19;5051108;28;20029;-38
2024/01/27 06:22:19;;;;;;;3.17;1.30;;;0.00;99.90;;;-0.99;100.00;99118.34;5049863;28;20466;-38
2024/01/27 06:24:45;;;;;;;4.03;1.73;;;0.00;99.90;;;-1.06;100.00;99121.56;5050226;28;20029;-38
2024/01/27 06:27:12;;;;;;;3.08;1.65;;;-0.10;99.90;;;-1.06;100.00;99125.03;5051712;28;20059;-38
2024/01/27 06:29:38;;;;;;;3.83;1.30;;;-0.10;99.90;;;-1.06;100.00;99129.31;5048918;28;20672;-38
2024/01/27 06:32:04;;;;;;;6.85;1.70;;;-0.10;99.90;;;-1.09;100.00;99127.50;5050334;28;20027;-38
2024/01/27 06:34:29;;;;;;;5.50;1.58;;;-0.20;99.90;;;-1.12;100.00;99129.97;5044299;28;20032;-38
2024/01/27 06:36:55;;;;;;;7.50;1.90;;;-0.20;99.90;;;-1.11;100.00;99130.84;5051154;28;20047;-38
2024/01/27 06:39:21;;;;;;;6.35;1.80;;;-0.20;99.90;;;-1.18;100.00;99125.47;5049201;28;20540;-38
2024/01/27 06:41:47;;;;;;;6.30;2.10;;;-0.20;99.90;;;-1.11;100.00;99139.53;5053888;28;20120;-37
2024/01/27 06:44:13;;;;;;;4.50;1.83;;;-0.20;99.90;;;-1.20;100.00;99132.28;5050145;28;20155;-37
2024/01/27 06:46:39;;;;;;;5.47;1.77;;;-0.20;99.90;;;-1.13;100.00;99142.88;5050107;28;20032;-37
2024/01/27 06:49:04;;;;;;;6.80;2.20;;;-0.20;99.90;;;-1.14;100.00;99142.00;5053364;28;20389;-36
2024/01/27 06:51:30;;;;;;;3.28;1.60;;;-0.30;99.90;;;-1.19;100.00;99134.03;5049164;28;20060;-36
2024/01/27 06:53:56;;;;;;;2.95;1.52;;;-0.30;99.90;;;-1.26;100.00;99121.69;5050240;28;20493;-37
2024/01/27 06:56:22;;;;;;;8.15;2.17;;;-0.20;99.90;;;-1.40;100.00;99097.91;5047368;28;20040;-37
2024/01/27 06:58:47;;;;;;;6.28;1.88;;;-0.20;99.90;;;-1.23;100.00;99124.41;5053730;28;20032;-37
2024/01/27 07:01:13;;;;;;;4.97;1.65;;;-0.20;99.90;;;-1.17;100.00;99141.88;5051302;28;20028;-37
2024/01/27 07:03:39;;;;;;;4.53;1.77;;;-0.20;99.90;;;-1.36;100.00;99104.94;5055149;28;20774;-37
2024/01/27 07:06:05;;;;;;;3.65;1.73;;;-0.20;99.90;;;-1.12;100.00;99144.66;5052475;28;20028;-37
2024/01/27 07:08:32;;;;;;;3.38;1.77;;;-0.20;99.90;;;-1.10;100.00;99149.03;5048701;28;20028;-37
2024/01/27 07:10:58;;;;;;;6.18;1.90;;;-0.20;99.90;;;-1.11;100.00;99139.53;5044956;28;20033;-37
2024/01/27 07:13:24;;;;;;;6.18;1.75;;;-0.20;99.90;;;-1.12;100.00;99142.06;5049670;28;20032;-37
2024/01/27 07:15:50;;;;;;;3.22;1.77;;;-0.20;99.90;;;-1.10;100.00;99143.88;5047690;28;20492;-37
2024/01/27 07:18:17;;;;;;;9.45;2.03;;;-0.20;99.90;;;-1.08;100.00;99147.38;5051191;28;20550;-38
2024/01/27 07:20:43;;;;;;;8.68;2.45;;;-0.10;99.90;;;-1.11;100.00;99136.94;5049660;28;20500;-37
2024/01/27 07:23:08;;;;;;;6.90;1.88;;;-0.10;99.90;;;-1.04;100.00;99140.63;5050080;28;20024;-37
2024/01/27 07:25:34;;;;;;;4.15;1.80;;;-0.10;99.90;;;-0.99;100.00;99144.25;5047623;28;20071;-37
2024/01/27 07:28:00;;;;;;;4.40;1.67;;;0.00;99.90;;;-1.22;100.00;99096.78;5050580;28;20033;-38
2024/01/27 07:30:25;;;;;;;7.30;2.03;;;0.00;99.90;;;-0.97;100.00;99134.84;5052713;28;20024;-38
2024/01/27 07:32:51;;;;;;;6.47;1.73;;;0.00;99.90;;;-0.89;100.00;99145.50;5050659;28;20445;-38
2024/01/27 07:35:17;;;;;;;8.38;1.70;;;0.10;99.90;;;-0.85;100.00;99145.66;5048535;28;20115;-38
2024/01/27 07:37:43;;;;;;;8.43;1.92;;;0.10;99.90;;;-0.82;100.00;99150.06;5046935;28;20398;-38
2024/01/27 07:40:09;;;;;;;3.00;1.40;;;0.10;99.90;;;-0.79;100.00;99156.25;5054721;28;20260;-39
2024/01/27 07:42:35;;;;;;;5.40;1.88;;;0.10;99.90;;;-0.71;100.00;99153.06;5066747;28;20024;-38
2024/01/27 07:45:01;;;;;;;8.07;1.90;;;0.20;99.90;;;-0.71;100.00;99153.94;5050507;28;20029;-38
2024/01/27 07:47:27;;;;;;;3.55;2.00;;;0.20;99.90;;;-0.68;100.00;99150.53;5044811;28;20024;-38
2024/01/27 07:49:53;;;;;;;6.82;2.40;;;0.20;99.90;;;-0.82;100.00;99116.41;5048893;28;20025;-38
2024/01/27 07:52:19;;;;;;;4.35;2.63;;;0.30;99.90;;;-0.64;100.00;99142.09;5050821;28;20048;-37
2024/01/27 07:54:45;;;;;;;7.78;2.40;;;0.30;99.90;;;-0.56;100.00;99148.41;5048648;28;20456;-38
2024/01/27 07:57:12;;;;;;;5.55;2.25;;;0.30;99.90;;;-0.54;100.00;99156.22;5050999;28;20055;-38
2024/01/27 07:59:38;;;;;;;7.20;2.15;;;0.40;99.90;;;-0.55;100.00;99145.00;5050595;28;20524;-38
2024/01/27 08:02:04;;;;;;;4.28;2.25;;;0.40;99.90;;;-0.45;100.00;99151.38;5050917;28;20324;-38
2024/01/27 08:04:29;;;;;;;6.93;2.25;;;0.40;99.90;;;-0.61;100.00;99119.75;5047896;28;20040;-38
2024/01/27 08:06:55;;;;;;;4.43;2.28;;;0.50;99.90;;;-0.41;100.00;99150.66;5052537;28;20049;-38
2024/01/27 08:09:21;;;;;;;5.80;2.50;;;0.50;99.90;;;-0.39;100.00;99147.28;5052258;28;20025;-38
2024/01/27 08:11:51;;;;;;;9.73;2.45;;;0.50;99.90;;;-0.36;100.00;99138.72;5051450;28;20036;-38
2024/01/27 08:14:17;;;;;;;6.10;2.55;;;0.60;99.90;;;-0.31;100.00;99128.50;5051487;28;20209;-38
2024/01/27 08:16:43;;;;;;;6.60;2.83;;;0.60;99.90;;;-0.22;100.00;99137.47;5049090;28;20089;-38
2024/01/27 08:19:08;;;;;;;7.20;2.65;;;0.70;99.90;;;-0.16;100.00;99144.59;5052305;28;20461;-38
2024/01/27 08:21:34;;;;;;;8.68;2.40;;;0.70;99.90;;;-0.12;100.00;99132.63;5052224;28;20028;-38
2024/01/27 08:24:00;;;;;;;5.03;2.20;;;0.80;99.90;;;-0.05;100.00;99132.88;5054815;28;20056;-38
2024/01/27 08:26:26;;;;;;;6.38;2.13;;;0.90;99.90;;;0.04;100.00;99140.06;5052421;28;20076;-38
2024/01/27 08:28:51;;;;;;;7.85;2.42;;;1.00;99.90;;;0.02;100.00;99122.69;5049279;28;20055;-38
2024/01/27 08:31:17;;;;;;;5.38;2.50;;;1.00;99.90;;;0.12;100.00;99133.41;5047647;28;20118;-38
2024/01/27 08:33:43;;;;;;;5.93;2.70;;;1.10;99.90;;;0.17;100.00;99142.22;5050126;28;20024;-38
2024/01/27 08:36:14;;;;;;;6.57;2.70;;;1.10;99.90;;;0.23;100.00;99138.06;5045875;28;20029;-38
2024/01/27 08:38:39;;;;;;;8.35;2.78;;;1.20;99.90;;;0.21;100.00;99131.94;5047025;28;20032;-38
2024/01/27 08:41:05;;;;;;;9.10;2.78;;;1.20;99.90;;;0.23;100.00;99131.16;5048722;28;20739;-39
2024/01/27 08:43:31;;;;;;;7.85;3.55;;;1.20;99.90;;;0.25;100.00;99120.81;5044909;28;20037;-38
2024/01/27 08:45:59;;;;;;;6.18;3.40;;;1.30;99.90;;;0.14;100.00;99098.03;5045353;28;20029;-38
2024/01/27 08:48:24;;;;;;;9.15;3.60;;;1.30;99.90;;;0.32;100.00;99126.28;5047630;28;20029;-38
2024/01/27 08:50:50;;;;;;;9.48;3.45;;;1.30;99.90;;;0.42;100.00;99137.81;5044123;28;20041;-38
2024/01/27 08:53:16;;;;;;;7.72;3.25;;;1.40;99.90;;;0.42;100.00;99127.44;5047611;28;20405;-38
2024/01/27 08:55:41;;;;;;;10.02;3.50;;;1.40;99.90;;;0.49;100.00;99134.56;5047130;28;20028;-38
2024/01/27 08:58:07;;;;;;;5.22;3.00;;;1.50;99.90;;;0.54;100.00;99127.81;5049655;28;20055;-38
2024/01/27 09:00:33;;;;;;;6.50;3.30;;;1.50;99.90;;;0.61;100.00;99126.28;5047163;28;20059;-38
2024/01/27 09:02:58;;;;;;;7.80;3.22;;;1.50;99.90;;;0.66;100.00;99129.88;5045291;28;20032;-38
2024/01/27 09:05:24;;;;;;;5.80;3.13;;;1.60;99.90;;;0.60;100.00;99111.53;5047906;28;20486;-38
2024/01/27 09:07:50;;;;;;;8.05;3.65;;;1.70;99.90;;;0.70;100.00;99133.47;5042566;28;20557;-38
2024/01/27 09:10:16;;;;;;;9.60;3.58;;;1.70;99.90;;;0.80;100.00;99140.69;5050319;28;20033;-38
2024/01/27 09:12:42;;;;;;;7.55;3.63;;;1.70;99.90;;;0.78;100.00;99134.59;5049433;28;20024;-38
2024/01/27 09:15:08;;;;;;;13.00;4.60;;;1.80;99.90;;;0.87;100.00;99140.03;5044535;28;20032;-38
2024/01/27 09:17:34;;;;;;;10.32;3.53;;;1.80;99.90;;;0.87;100.00;99134.84;5045137;28;20388;-38
2024/01/27 09:19:59;;;;;;;10.27;3.20;;;1.90;99.90;;;0.91;100.00;99133.22;5047926;28;20468;-38
2024/01/27 09:22:25;;;;;;;8.65;3.55;;;1.90;99.90;;;0.92;100.00;99133.28;5048018;28;20275;-37
2024/01/27 09:24:52;;;;;;;8.82;3.17;;;1.90;99.90;;;1.05;100.00;99147.50;5044232;28;20059;-38
2024/01/27 09:27:18;;;;;;;8.20;3.20;;;2.00;99.90;;;1.06;100.00;99145.78;5050321;28;20098;-38
2024/01/27 09:29:44;;;;;;;7.88;3.22;;;2.10;99.90;;;1.12;100.00;99149.44;5046421;28;20044;-38
2024/01/27 09:32:10;;;;;;;9.73;3.03;;;2.10;99.90;;;1.18;100.00;99153.06;5048086;28;20037;-38
2024/01/27 09:34:35;;;;;;;10.90;3.30;;;2.20;99.90;;;1.22;100.00;99148.00;5047520;28;20060;-38
2024/01/27 09:37:01;;;;;;;5.72;2.97;;;2.20;99.90;;;1.27;100.00;99146.38;5042658;28;20546;-37
2024/01/27 09:39:27;;;;;;;7.53;2.63;;;2.20;99.90;;;1.38;100.00;99154.47;5048190;28;20587;-38
2024/01/27 09:41:55;;;;;;;5.80;2.80;;;2.30;99.90;;;1.43;100.00;99155.50;5049244;28;20033;-37
2024/01/27 09:44:21;;;;;;;7.88;3.17;;;2.40;99.90;;;1.53;100.00;99156.66;5050026;28;20033;-38
2024/01/27 09:46:48;;;;;;;4.90;2.58;;;2.40;99.90;;;1.58;100.00;99160.25;5046853;28;20040;-37
2024/01/27 09:49:14;;;;;;;5.43;2.90;;;2.50;99.90;;;1.61;100.00;99162.03;5050995;28;20028;-38
2024/01/27 09:51:41;;;;;;;7.72;3.17;;;2.60;99.90;;;1.66;100.00;99163.91;5044470;28;20032;-38
2024/01/27 09:54:07;;;;;;;7.50;3.63;;;2.60;99.90;;;1.66;100.00;99150.91;5048622;28;20040;-38
2024/01/27 09:56:33;;;;;;;8.23;2.97;;;2.70;99.90;;;1.86;100.00;99168.78;5051073;28;20126;-38
2024/01/27 09:59:00;;;;;;;7.32;2.80;;;2.80;99.90;;;1.93;100.00;99175.91;5047527;28;20199;-38
2024/01/27 10:01:28;;;;;;;8.90;3.00;;;2.90;99.90;;;2.02;100.00;99183.94;5050193;28;20047;-38
2024/01/27 10:03:58;;;;;;;8.00;3.53;;;2.90;99.90;;;2.10;100.00;99185.03;5053806;28;20189;-38
2024/01/27 10:06:23;;;;;;;7.43;2.80;;;3.00;99.90;;;2.19;100.00;99184.38;5051094;28;20501;-38
2024/01/27 10:08:55;;;;;;;5.82;2.85;;;3.10;99.90;;;2.31;100.00;99183.78;5049861;28;20365;-38
2024/01/27 10:11:22;;;;;;;8.07;3.22;;;3.10;99.90;;;2.36;100.00;99187.38;5050762;28;20040;-38
2024/01/27 10:13:59;;;;;;;6.30;2.92;;;3.20;99.90;;;2.35;100.00;99170.03;5047918;28;20285;-38
2024/01/27 10:16:26;;;;;;;9.35;3.38;;;3.30;99.90;;;2.46;100.00;99173.75;5049812;28;20036;-37
2024/01/27 10:19:04;;;;;;;5.93;2.92;;;3.40;99.90;;;2.56;100.00;99187.88;5050682;28;20024;-38